sensor_id;sensor_type;location;lat;lon;timestamp;temperature;humidity
34985;DHT22;21190;58.750;17.004;2024-03-06T00:00:23;-0.10;99.90
34985;DHT22;21190;58.750;17.004;2024-03-06T00:02:50;-0.10;99.90
34985;DHT22;21190;58.750;17.004;2024-03-06T00:05:18;-0.10;99.90
34985;DHT22;21190;58.750;17.004;2024-03-06T00:07:45;0.00;99.90
34985;DHT22;21190;58.750;17.004;2024-03-06T00:10:13;0.00;99.90
34985;DHT22;21190;58.750;17.004;2024-03-06T00:12:40;0.00;99.90
34985;DHT22;21190;58.750;17.004;2024-03-06T00:15:07;0.00;99.90
34985;DHT22;21190;58.750;17.004;2024-03-06T00:17:35;0.00;99.90
34985;DHT22;21190;58.750;17.004;2024-03-06T00:20:03;0.10;99.90
34985;DHT22;21190;58.750;17.004;2024-03-06T00:22:32;0.00;99.90
34985;DHT22;21190;58.750;17.004;2024-03-06T00:24:59;0.00;99.90
34985;DHT22;21190;58.750;17.004;2024-03-06T00:27:26;0.10;99.90
34985;DHT22;21190;58.750;17.004;2024-03-06T00:29:54;0.10;99.90
34985;DHT22;21190;58.750;17.004;2024-03-06T00:32:21;0.10;99.90
34985;DHT22;21190;58.750;17.004;2024-03-06T00:34:50;0.10;99.90
34985;DHT22;21190;58.750;17.004;2024-03-06T00:37:17;0.10;99.90
34985;DHT22;21190;58.750;17.004;2024-03-06T00:39:44;0.10;99.90
34985;DHT22;21190;58.750;17.004;2024-03-06T00:42:12;0.20;99.90
34985;DHT22;21190;58.750;17.004;2024-03-06T00:44:41;0.20;99.90
34985;DHT22;21190;58.750;17.004;2024-03-06T00:47:08;0.20;99.90
34985;DHT22;21190;58.750;17.004;2024-03-06T00:49:35;0.20;99.90
34985;DHT22;21190;58.750;17.004;2024-03-06T00:52:02;0.20;99.90
34985;DHT22;21190;58.750;17.004;2024-03-06T00:54:31;0.20;99.90
34985;DHT22;21190;58.750;17.004;2024-03-06T00:56:58;0.30;99.90
34985;DHT22;21190;58.750;17.004;2024-03-06T00:59:26;0.30;99.90
34985;DHT22;21190;58.750;17.004;2024-03-06T01:01:54;0.30;99.90
34985;DHT22;21190;58.750;17.004;2024-03-06T01:04:24;0.30;99.90
34985;DHT22;21190;58.750;17.004;2024-03-06T01:06:51;0.30;99.90
34985;DHT22;21190;58.750;17.004;2024-03-06T01:09:18;0.30;99.90
34985;DHT22;21190;58.750;17.004;2024-03-06T01:11:46;0.30;99.90
34985;DHT22;21190;58.750;17.004;2024-03-06T01:14:15;0.30;99.90
34985;DHT22;21190;58.750;17.004;2024-03-06T01:16:43;0.30;99.90
34985;DHT22;21190;58.750;17.004;2024-03-06T01:19:11;0.40;99.90
34985;DHT22;21190;58.750;17.004;2024-03-06T01:21:38;0.30;99.90
34985;DHT22;21190;58.750;17.004;2024-03-06T01:24:05;0.40;99.90
34985;DHT22;21190;58.750;17.004;2024-03-06T01:26:32;0.40;99.90
34985;DHT22;21190;58.750;17.004;2024-03-06T01:29:00;0.40;99.90
34985;DHT22;21190;58.750;17.004;2024-03-06T01:31:27;0.40;99.90
34985;DHT22;21190;58.750;17.004;2024-03-06T01:33:54;0.40;99.90
34985;DHT22;21190;58.750;17.004;2024-03-06T01:36:21;0.40;99.90
34985;DHT22;21190;58.750;17.004;2024-03-06T01:38:48;0.40;99.90
34985;DHT22;21190;58.750;17.004;2024-03-06T01:41:15;0.40;99.90
34985;DHT22;21190;58.750;17.004;2024-03-06T01:43:43;0.40;99.90
34985;DHT22;21190;58.750;17.004;2024-03-06T01:46:11;0.40;99.90
34985;DHT22;21190;58.750;17.004;2024-03-06T01:48:38;0.40;99.90
34985;DHT22;21190;58.750;17.004;2024-03-06T01:51:06;0.40;99.90
34985;DHT22;21190;58.750;17.004;2024-03-06T01:53:34;0.40;99.90
34985;DHT22;21190;58.750;17.004;2024-03-06T01:56:04;0.40;99.90
34985;DHT22;21190;58.750;17.004;2024-03-06T01:58:32;0.40;99.90
34985;DHT22;21190;58.750;17.004;2024-03-06T02:01:01;0.40;99.90
34985;DHT22;21190;58.750;17.004;2024-03-06T02:03:31;0.40;99.90
34985;DHT22;21190;58.750;17.004;2024-03-06T02:06:00;0.50;99.90
34985;DHT22;21190;58.750;17.004;2024-03-06T02:08:29;0.50;99.90
34985;DHT22;21190;58.750;17.004;2024-03-06T02:10:56;0.50;99.90
34985;DHT22;21190;58.750;17.004;2024-03-06T02:13:24;0.50;99.90
34985;DHT22;21190;58.750;17.004;2024-03-06T02:15:51;0.50;99.90
34985;DHT22;21190;58.750;17.004;2024-03-06T02:18:19;0.40;99.90
34985;DHT22;21190;58.750;17.004;2024-03-06T02:20:46;0.40;99.90
34985;DHT22;21190;58.750;17.004;2024-03-06T02:23:14;0.40;99.90
34985;DHT22;21190;58.750;17.004;2024-03-06T02:25:41;0.40;99.90
34985;DHT22;21190;58.750;17.004;2024-03-06T02:28:09;0.40;99.90
34985;DHT22;21190;58.750;17.004;2024-03-06T02:30:36;0.40;99.90
34985;DHT22;21190;58.750;17.004;2024-03-06T02:33:04;0.40;99.90
34985;DHT22;21190;58.750;17.004;2024-03-06T02:35:33;0.40;99.90
34985;DHT22;21190;58.750;17.004;2024-03-06T02:38:03;0.30;99.90
34985;DHT22;21190;58.750;17.004;2024-03-06T02:40:32;0.40;99.90
34985;DHT22;21190;58.750;17.004;2024-03-06T02:42:59;0.40;99.90
34985;DHT22;21190;58.750;17.004;2024-03-06T02:45:26;0.40;99.90
34985;DHT22;21190;58.750;17.004;2024-03-06T02:47:54;0.40;99.90
34985;DHT22;21190;58.750;17.004;2024-03-06T02:50:23;0.40;99.90
34985;DHT22;21190;58.750;17.004;2024-03-06T02:52:52;0.40;99.90
34985;DHT22;21190;58.750;17.004;2024-03-06T02:55:21;0.40;99.90
34985;DHT22;21190;58.750;17.004;2024-03-06T02:57:49;0.40;99.90
34985;DHT22;21190;58.750;17.004;2024-03-06T03:00:16;0.30;99.90
34985;DHT22;21190;58.750;17.004;2024-03-06T03:02:43;0.30;99.90
34985;DHT22;21190;58.750;17.004;2024-03-06T03:05:11;0.30;99.90
34985;DHT22;21190;58.750;17.004;2024-03-06T03:07:38;0.30;99.90
34985;DHT22;21190;58.750;17.004;2024-03-06T03:10:06;0.30;99.90
34985;DHT22;21190;58.750;17.004;2024-03-06T03:12:33;0.30;99.90
34985;DHT22;21190;58.750;17.004;2024-03-06T03:15:01;0.30;99.90
34985;DHT22;21190;58.750;17.004;2024-03-06T03:17:28;0.30;99.90
34985;DHT22;21190;58.750;17.004;2024-03-06T03:19:55;0.30;99.90
34985;DHT22;21190;58.750;17.004;2024-03-06T03:22:22;0.30;99.90
34985;DHT22;21190;58.750;17.004;2024-03-06T03:24:50;0.30;99.90
34985;DHT22;21190;58.750;17.004;2024-03-06T03:27:17;0.30;99.90
34985;DHT22;21190;58.750;17.004;2024-03-06T03:29:44;0.30;99.90
34985;DHT22;21190;58.750;17.004;2024-03-06T03:32:12;0.30;99.90
34985;DHT22;21190;58.750;17.004;2024-03-06T03:34:39;0.30;99.90
34985;DHT22;21190;58.750;17.004;2024-03-06T03:37:07;0.30;99.90
34985;DHT22;21190;58.750;17.004;2024-03-06T03:39:35;0.30;99.90
34985;DHT22;21190;58.750;17.004;2024-03-06T03:42:03;0.30;99.90
34985;DHT22;21190;58.750;17.004;2024-03-06T03:44:30;0.30;99.90
34985;DHT22;21190;58.750;17.004;2024-03-06T03:46:57;0.30;99.90
34985;DHT22;21190;58.750;17.004;2024-03-06T03:49:24;0.30;99.90
34985;DHT22;21190;58.750;17.004;2024-03-06T03:51:51;0.30;99.90
34985;DHT22;21190;58.750;17.004;2024-03-06T03:54:18;0.20;99.90
34985;DHT22;21190;58.750;17.004;2024-03-06T03:56:46;0.20;99.90
34985;DHT22;21190;58.750;17.004;2024-03-06T03:59:13;0.20;99.90
34985;DHT22;21190;58.750;17.004;2024-03-06T04:01:40;0.30;99.90
34985;DHT22;21190;58.750;17.004;2024-03-06T04:04:07;0.30;99.90
34985;DHT22;21190;58.750;17.004;2024-03-06T04:06:35;0.20;99.90
34985;DHT22;21190;58.750;17.004;2024-03-06T04:09:02;0.20;99.90
34985;DHT22;21190;58.750;17.004;2024-03-06T04:11:31;0.20;99.90
34985;DHT22;21190;58.750;17.004;2024-03-06T04:14:04;0.20;99.90
34985;DHT22;21190;58.750;17.004;2024-03-06T04:16:31;0.20;99.90
34985;DHT22;21190;58.750;17.004;2024-03-06T04:19:00;0.20;99.90
34985;DHT22;21190;58.750;17.004;2024-03-06T04:21:27;0.20;99.90
34985;DHT22;21190;58.750;17.004;2024-03-06T04:23:55;0.20;99.90
34985;DHT22;21190;58.750;17.004;2024-03-06T04:26:22;0.20;99.90
34985;DHT22;21190;58.750;17.004;2024-03-06T04:28:50;0.20;99.90
34985;DHT22;21190;58.750;17.004;2024-03-06T04:31:17;0.20;99.90
34985;DHT22;21190;58.750;17.004;2024-03-06T04:33:44;0.20;99.90
34985;DHT22;21190;58.750;17.004;2024-03-06T04:36:11;0.20;99.90
34985;DHT22;21190;58.750;17.004;2024-03-06T04:38:38;0.20;99.90
34985;DHT22;21190;58.750;17.004;2024-03-06T04:41:06;0.20;99.90
34985;DHT22;21190;58.750;17.004;2024-03-06T04:43:34;0.20;99.90
34985;DHT22;21190;58.750;17.004;2024-03-06T04:46:02;0.20;99.90
34985;DHT22;21190;58.750;17.004;2024-03-06T04:48:30;0.20;99.90
34985;DHT22;21190;58.750;17.004;2024-03-06T04:50:57;0.20;99.90
34985;DHT22;21190;58.750;17.004;2024-03-06T04:53:25;0.20;99.90
34985;DHT22;21190;58.750;17.004;2024-03-06T04:55:52;0.20;99.90
34985;DHT22;21190;58.750;17.004;2024-03-06T04:58:19;0.20;99.90
34985;DHT22;21190;58.750;17.004;2024-03-06T05:00:47;0.20;99.90
34985;DHT22;21190;58.750;17.004;2024-03-06T05:03:14;0.20;99.90
34985;DHT22;21190;58.750;17.004;2024-03-06T05:06:00;0.20;99.90
34985;DHT22;21190;58.750;17.004;2024-03-06T05:08:44;0.20;99.90
34985;DHT22;21190;58.750;17.004;2024-03-06T05:11:29;0.20;99.90
34985;DHT22;21190;58.750;17.004;2024-03-06T05:14:13;0.10;99.90
34985;DHT22;21190;58.750;17.004;2024-03-06T05:16:58;0.20;99.90
34985;DHT22;21190;58.750;17.004;2024-03-06T05:19:44;0.20;99.90
34985;DHT22;21190;58.750;17.004;2024-03-06T05:22:28;0.30;99.90
34985;DHT22;21190;58.750;17.004;2024-03-06T05:25:13;0.30;99.90
34985;DHT22;21190;58.750;17.004;2024-03-06T05:27:58;0.30;99.90
34985;DHT22;21190;58.750;17.004;2024-03-06T05:30:42;0.30;99.90
34985;DHT22;21190;58.750;17.004;2024-03-06T05:33:27;0.30;99.90
34985;DHT22;21190;58.750;17.004;2024-03-06T05:36:13;0.20;99.90
34985;DHT22;21190;58.750;17.004;2024-03-06T05:38:57;0.20;99.90
34985;DHT22;21190;58.750;17.004;2024-03-06T05:41:42;0.20;99.90
34985;DHT22;21190;58.750;17.004;2024-03-06T05:44:26;0.20;99.90
34985;DHT22;21190;58.750;17.004;2024-03-06T05:47:11;0.20;99.90
34985;DHT22;21190;58.750;17.004;2024-03-06T05:49:55;0.30;99.90
34985;DHT22;21190;58.750;17.004;2024-03-06T05:52:40;0.30;99.90
34985;DHT22;21190;58.750;17.004;2024-03-06T05:55:25;0.30;99.90
34985;DHT22;21190;58.750;17.004;2024-03-06T05:58:10;0.20;99.90
34985;DHT22;21190;58.750;17.004;2024-03-06T06:00:42;0.20;99.90
34985;DHT22;21190;58.750;17.004;2024-03-06T06:03:09;0.20;99.90
34985;DHT22;21190;58.750;17.004;2024-03-06T06:05:39;0.20;99.90
34985;DHT22;21190;58.750;17.004;2024-03-06T06:08:07;0.30;99.90
34985;DHT22;21190;58.750;17.004;2024-03-06T06:10:35;0.20;99.90
34985;DHT22;21190;58.750;17.004;2024-03-06T06:13:02;0.30;99.90
34985;DHT22;21190;58.750;17.004;2024-03-06T06:15:32;0.30;99.90
34985;DHT22;21190;58.750;17.004;2024-03-06T06:17:59;0.30;99.90
34985;DHT22;21190;58.750;17.004;2024-03-06T06:20:27;0.30;99.90
34985;DHT22;21190;58.750;17.004;2024-03-06T06:22:54;0.30;99.90
34985;DHT22;21190;58.750;17.004;2024-03-06T06:25:22;0.30;99.90
34985;DHT22;21190;58.750;17.004;2024-03-06T06:27:49;0.40;99.90
34985;DHT22;21190;58.750;17.004;2024-03-06T06:30:16;0.40;99.90
34985;DHT22;21190;58.750;17.004;2024-03-06T06:32:44;0.40;99.90
34985;DHT22;21190;58.750;17.004;2024-03-06T06:35:12;0.40;99.90
34985;DHT22;21190;58.750;17.004;2024-03-06T06:37:40;0.50;99.90
34985;DHT22;21190;58.750;17.004;2024-03-06T06:40:08;0.50;99.90
34985;DHT22;21190;58.750;17.004;2024-03-06T06:42:36;0.50;99.90
34985;DHT22;21190;58.750;17.004;2024-03-06T06:45:04;0.40;99.90
34985;DHT22;21190;58.750;17.004;2024-03-06T06:47:34;0.40;99.90
34985;DHT22;21190;58.750;17.004;2024-03-06T06:50:06;0.40;99.90
34985;DHT22;21190;58.750;17.004;2024-03-06T06:52:33;0.40;99.90
34985;DHT22;21190;58.750;17.004;2024-03-06T06:55:01;0.40;99.90
34985;DHT22;21190;58.750;17.004;2024-03-06T06:57:30;0.40;99.90
34985;DHT22;21190;58.750;17.004;2024-03-06T06:59:57;0.50;99.90
34985;DHT22;21190;58.750;17.004;2024-03-06T07:02:25;0.50;99.90
34985;DHT22;21190;58.750;17.004;2024-03-06T07:04:52;0.50;99.90
34985;DHT22;21190;58.750;17.004;2024-03-06T07:07:20;0.50;99.90
34985;DHT22;21190;58.750;17.004;2024-03-06T07:09:47;0.40;99.90
34985;DHT22;21190;58.750;17.004;2024-03-06T07:12:14;0.40;99.90
34985;DHT22;21190;58.750;17.004;2024-03-06T07:14:41;0.40;99.90
34985;DHT22;21190;58.750;17.004;2024-03-06T07:17:09;0.50;99.90
34985;DHT22;21190;58.750;17.004;2024-03-06T07:19:36;0.40;99.90
34985;DHT22;21190;58.750;17.004;2024-03-06T07:22:03;0.50;99.90
34985;DHT22;21190;58.750;17.004;2024-03-06T07:24:31;0.50;99.90
34985;DHT22;21190;58.750;17.004;2024-03-06T07:27:01;0.50;99.90
34985;DHT22;21190;58.750;17.004;2024-03-06T07:29:29;0.60;99.90
34985;DHT22;21190;58.750;17.004;2024-03-06T07:31:56;0.60;99.90
34985;DHT22;21190;58.750;17.004;2024-03-06T07:34:24;0.60;99.90
34985;DHT22;21190;58.750;17.004;2024-03-06T07:36:52;0.60;99.90
34985;DHT22;21190;58.750;17.004;2024-03-06T07:39:22;0.60;99.90
34985;DHT22;21190;58.750;17.004;2024-03-06T07:41:49;0.60;99.90
34985;DHT22;21190;58.750;17.004;2024-03-06T07:44:16;0.70;99.90
34985;DHT22;21190;58.750;17.004;2024-03-06T07:46:43;0.70;99.90
34985;DHT22;21190;58.750;17.004;2024-03-06T07:49:11;0.70;99.90
34985;DHT22;21190;58.750;17.004;2024-03-06T07:51:38;0.70;99.90
34985;DHT22;21190;58.750;17.004;2024-03-06T07:54:07;0.70;99.90
34985;DHT22;21190;58.750;17.004;2024-03-06T07:56:34;0.80;99.90
34985;DHT22;21190;58.750;17.004;2024-03-06T07:59:02;0.80;99.90
34985;DHT22;21190;58.750;17.004;2024-03-06T08:01:29;0.90;99.90
34985;DHT22;21190;58.750;17.004;2024-03-06T08:03:56;0.90;99.90
34985;DHT22;21190;58.750;17.004;2024-03-06T08:06:23;0.90;99.90
34985;DHT22;21190;58.750;17.004;2024-03-06T08:08:52;0.90;99.90
34985;DHT22;21190;58.750;17.004;2024-03-06T08:11:19;1.00;99.90
34985;DHT22;21190;58.750;17.004;2024-03-06T08:13:49;1.00;99.90
34985;DHT22;21190;58.750;17.004;2024-03-06T08:16:17;1.00;99.90
34985;DHT22;21190;58.750;17.004;2024-03-06T08:18:44;1.00;99.90
34985;DHT22;21190;58.750;17.004;2024-03-06T08:21:11;1.10;99.90
34985;DHT22;21190;58.750;17.004;2024-03-06T08:23:38;1.00;99.90
34985;DHT22;21190;58.750;17.004;2024-03-06T08:26:06;1.10;99.90
34985;DHT22;21190;58.750;17.004;2024-03-06T08:28:33;1.10;99.90
34985;DHT22;21190;58.750;17.004;2024-03-06T08:31:01;1.10;99.90
34985;DHT22;21190;58.750;17.004;2024-03-06T08:33:28;1.10;99.90
34985;DHT22;21190;58.750;17.004;2024-03-06T08:35:55;1.10;99.90
34985;DHT22;21190;58.750;17.004;2024-03-06T08:38:23;1.20;99.90
34985;DHT22;21190;58.750;17.004;2024-03-06T08:40:50;1.20;99.90
34985;DHT22;21190;58.750;17.004;2024-03-06T08:43:17;1.20;99.90
34985;DHT22;21190;58.750;17.004;2024-03-06T08:45:46;1.30;99.90
34985;DHT22;21190;58.750;17.004;2024-03-06T08:48:13;1.30;99.90
34985;DHT22;21190;58.750;17.004;2024-03-06T08:50:41;1.40;99.90
34985;DHT22;21190;58.750;17.004;2024-03-06T08:53:08;1.40;99.90
34985;DHT22;21190;58.750;17.004;2024-03-06T08:55:36;1.40;99.90
34985;DHT22;21190;58.750;17.004;2024-03-06T08:58:04;1.50;99.90
34985;DHT22;21190;58.750;17.004;2024-03-06T09:00:31;1.50;99.90
34985;DHT22;21190;58.750;17.004;2024-03-06T09:02:59;1.40;99.90
34985;DHT22;21190;58.750;17.004;2024-03-06T09:05:27;1.40;99.90
34985;DHT22;21190;58.750;17.004;2024-03-06T09:07:54;1.40;99.90
34985;DHT22;21190;58.750;17.004;2024-03-06T09:10:23;1.50;99.90
34985;DHT22;21190;58.750;17.004;2024-03-06T09:12:50;1.50;99.90
34985;DHT22;21190;58.750;17.004;2024-03-06T09:15:17;1.50;99.90
34985;DHT22;21190;58.750;17.004;2024-03-06T09:17:46;1.50;99.90
34985;DHT22;21190;58.750;17.004;2024-03-06T09:20:14;1.60;99.90
34985;DHT22;21190;58.750;17.004;2024-03-06T09:22:43;1.70;99.90
34985;DHT22;21190;58.750;17.004;2024-03-06T09:25:11;1.60;99.90
34985;DHT22;21190;58.750;17.004;2024-03-06T09:27:43;1.70;99.90
34985;DHT22;21190;58.750;17.004;2024-03-06T09:30:10;1.70;99.90
34985;DHT22;21190;58.750;17.004;2024-03-06T09:32:40;1.80;99.90
34985;DHT22;21190;58.750;17.004;2024-03-06T09:35:09;2.00;99.90
34985;DHT22;21190;58.750;17.004;2024-03-06T09:37:36;2.20;99.90
34985;DHT22;21190;58.750;17.004;2024-03-06T09:40:03;2.20;99.90
34985;DHT22;21190;58.750;17.004;2024-03-06T09:42:31;2.20;99.90
34985;DHT22;21190;58.750;17.004;2024-03-06T09:44:59;2.20;99.90
34985;DHT22;21190;58.750;17.004;2024-03-06T09:47:30;2.20;99.90
34985;DHT22;21190;58.750;17.004;2024-03-06T09:49:59;2.30;99.90
34985;DHT22;21190;58.750;17.004;2024-03-06T09:52:30;2.40;99.90
34985;DHT22;21190;58.750;17.004;2024-03-06T09:54:58;2.50;99.90
34985;DHT22;21190;58.750;17.004;2024-03-06T09:57:26;2.40;99.90
34985;DHT22;21190;58.750;17.004;2024-03-06T09:59:54;2.50;99.90
34985;DHT22;21190;58.750;17.004;2024-03-06T10:05:40;2.70;99.90
34985;DHT22;21190;58.750;17.004;2024-03-06T10:08:10;2.80;99.90
34985;DHT22;21190;58.750;17.004;2024-03-06T10:10:37;2.80;99.90
34985;DHT22;21190;58.750;17.004;2024-03-06T10:13:05;2.80;99.90
34985;DHT22;21190;58.750;17.004;2024-03-06T10:15:34;2.80;99.90
34985;DHT22;21190;58.750;17.004;2024-03-06T10:18:21;2.80;99.90
34985;DHT22;21190;58.750;17.004;2024-03-06T10:20:53;2.90;99.90
34985;DHT22;21190;58.750;17.004;2024-03-06T10:23:20;3.00;99.90
34985;DHT22;21190;58.750;17.004;2024-03-06T10:25:48;2.90;99.90
34985;DHT22;21190;58.750;17.004;2024-03-06T10:28:23;2.90;99.90
34985;DHT22;21190;58.750;17.004;2024-03-06T10:30:51;3.00;99.90
34985;DHT22;21190;58.750;17.004;2024-03-06T10:33:19;3.00;99.90
34985;DHT22;21190;58.750;17.004;2024-03-06T10:35:47;3.00;99.90
34985;DHT22;21190;58.750;17.004;2024-03-06T10:38:20;3.10;99.90
34985;DHT22;21190;58.750;17.004;2024-03-06T10:40:51;3.10;99.90
34985;DHT22;21190;58.750;17.004;2024-03-06T10:43:20;3.20;99.90
34985;DHT22;21190;58.750;17.004;2024-03-06T10:45:49;3.20;99.90
34985;DHT22;21190;58.750;17.004;2024-03-06T10:48:18;3.30;99.90
34985;DHT22;21190;58.750;17.004;2024-03-06T10:50:47;3.30;99.90
34985;DHT22;21190;58.750;17.004;2024-03-06T10:53:17;3.40;99.90
34985;DHT22;21190;58.750;17.004;2024-03-06T10:55:50;3.50;99.90
34985;DHT22;21190;58.750;17.004;2024-03-06T10:58:19;3.50;99.90
34985;DHT22;21190;58.750;17.004;2024-03-06T11:00:48;3.60;99.90
34985;DHT22;21190;58.750;17.004;2024-03-06T11:03:16;3.70;99.90
34985;DHT22;21190;58.750;17.004;2024-03-06T11:05:44;3.90;99.90
34985;DHT22;21190;58.750;17.004;2024-03-06T11:08:15;4.00;99.90
34985;DHT22;21190;58.750;17.004;2024-03-06T11:10:44;4.10;99.90
34985;DHT22;21190;58.750;17.004;2024-03-06T11:13:25;4.10;99.90
34985;DHT22;21190;58.750;17.004;2024-03-06T11:16:01;4.10;99.90
34985;DHT22;21190;58.750;17.004;2024-03-06T11:23:26;4.30;99.90
34985;DHT22;21190;58.750;17.004;2024-03-06T11:28:22;4.30;99.90
34985;DHT22;21190;58.750;17.004;2024-03-06T11:31:00;4.40;99.90
34985;DHT22;21190;58.750;17.004;2024-03-06T11:33:37;4.50;99.90
34985;DHT22;21190;58.750;17.004;2024-03-06T11:36:25;4.50;99.90
34985;DHT22;21190;58.750;17.004;2024-03-06T11:39:05;4.50;99.90
34985;DHT22;21190;58.750;17.004;2024-03-06T11:41:49;4.40;99.90
34985;DHT22;21190;58.750;17.004;2024-03-06T11:44:21;4.40;99.90
34985;DHT22;21190;58.750;17.004;2024-03-06T11:49:32;4.50;99.90
34985;DHT22;21190;58.750;17.004;2024-03-06T11:52:05;4.50;99.90
34985;DHT22;21190;58.750;17.004;2024-03-06T11:54:35;4.60;99.90
34985;DHT22;21190;58.750;17.004;2024-03-06T11:57:04;4.70;99.90
34985;DHT22;21190;58.750;17.004;2024-03-06T11:59:34;4.70;99.90
34985;DHT22;21190;58.750;17.004;2024-03-06T12:02:04;4.80;99.90
34985;DHT22;21190;58.750;17.004;2024-03-06T12:04:34;4.70;99.90
34985;DHT22;21190;58.750;17.004;2024-03-06T12:07:04;4.70;99.90
34985;DHT22;21190;58.750;17.004;2024-03-06T12:09:37;4.70;99.90
34985;DHT22;21190;58.750;17.004;2024-03-06T12:12:09;4.60;99.90
34985;DHT22;21190;58.750;17.004;2024-03-06T12:14:37;4.70;99.90
34985;DHT22;21190;58.750;17.004;2024-03-06T12:17:12;4.70;99.90
34985;DHT22;21190;58.750;17.004;2024-03-06T12:19:43;4.60;99.90
34985;DHT22;21190;58.750;17.004;2024-03-06T12:22:12;4.70;99.90
34985;DHT22;21190;58.750;17.004;2024-03-06T12:24:41;4.70;99.90
34985;DHT22;21190;58.750;17.004;2024-03-06T12:27:09;4.60;99.90
34985;DHT22;21190;58.750;17.004;2024-03-06T12:29:36;4.60;99.90
34985;DHT22;21190;58.750;17.004;2024-03-06T12:32:15;4.70;99.90
34985;DHT22;21190;58.750;17.004;2024-03-06T12:34:43;4.70;99.90
34985;DHT22;21190;58.750;17.004;2024-03-06T12:37:10;4.80;99.90
34985;DHT22;21190;58.750;17.004;2024-03-06T12:39:38;4.70;99.90
34985;DHT22;21190;58.750;17.004;2024-03-06T12:42:09;4.80;99.90
34985;DHT22;21190;58.750;17.004;2024-03-06T12:44:39;4.80;99.90
34985;DHT22;21190;58.750;17.004;2024-03-06T12:47:08;4.90;99.90
34985;DHT22;21190;58.750;17.004;2024-03-06T12:49:35;4.90;99.90
34985;DHT22;21190;58.750;17.004;2024-03-06T12:52:02;4.80;99.90
34985;DHT22;21190;58.750;17.004;2024-03-06T12:54:32;4.90;99.90
34985;DHT22;21190;58.750;17.004;2024-03-06T12:56:59;4.80;99.90
34985;DHT22;21190;58.750;17.004;2024-03-06T12:59:26;4.70;99.90
34985;DHT22;21190;58.750;17.004;2024-03-06T13:01:54;4.80;99.90
34985;DHT22;21190;58.750;17.004;2024-03-06T13:04:23;4.80;99.90
34985;DHT22;21190;58.750;17.004;2024-03-06T13:06:51;4.80;99.90
34985;DHT22;21190;58.750;17.004;2024-03-06T13:09:18;4.80;99.90
34985;DHT22;21190;58.750;17.004;2024-03-06T13:11:45;4.90;99.90
34985;DHT22;21190;58.750;17.004;2024-03-06T13:14:13;5.00;99.90
34985;DHT22;21190;58.750;17.004;2024-03-06T13:16:40;5.00;99.90
34985;DHT22;21190;58.750;17.004;2024-03-06T13:19:07;5.00;99.90
34985;DHT22;21190;58.750;17.004;2024-03-06T13:21:35;5.00;99.90
34985;DHT22;21190;58.750;17.004;2024-03-06T13:24:02;5.00;99.90
34985;DHT22;21190;58.750;17.004;2024-03-06T13:26:30;5.00;99.90
34985;DHT22;21190;58.750;17.004;2024-03-06T13:28:57;4.90;99.90
34985;DHT22;21190;58.750;17.004;2024-03-06T13:31:27;4.80;99.90
34985;DHT22;21190;58.750;17.004;2024-03-06T13:33:54;4.80;99.90
34985;DHT22;21190;58.750;17.004;2024-03-06T13:36:21;4.80;99.90
34985;DHT22;21190;58.750;17.004;2024-03-06T13:38:49;4.80;99.90
34985;DHT22;21190;58.750;17.004;2024-03-06T13:41:17;4.70;99.90
34985;DHT22;21190;58.750;17.004;2024-03-06T13:43:44;4.60;99.90
34985;DHT22;21190;58.750;17.004;2024-03-06T13:46:12;4.60;99.90
34985;DHT22;21190;58.750;17.004;2024-03-06T13:48:40;4.60;99.90
34985;DHT22;21190;58.750;17.004;2024-03-06T13:51:07;4.50;99.90
34985;DHT22;21190;58.750;17.004;2024-03-06T13:53:34;4.40;99.90
34985;DHT22;21190;58.750;17.004;2024-03-06T13:56:01;4.50;99.90
34985;DHT22;21190;58.750;17.004;2024-03-06T13:58:29;4.40;99.90
34985;DHT22;21190;58.750;17.004;2024-03-06T14:00:57;4.40;99.90
34985;DHT22;21190;58.750;17.004;2024-03-06T14:03:24;4.40;99.90
34985;DHT22;21190;58.750;17.004;2024-03-06T14:05:52;4.40;99.90
34985;DHT22;21190;58.750;17.004;2024-03-06T14:08:20;4.40;99.90
34985;DHT22;21190;58.750;17.004;2024-03-06T14:10:49;4.40;99.90
34985;DHT22;21190;58.750;17.004;2024-03-06T14:13:17;4.30;99.90
34985;DHT22;21190;58.750;17.004;2024-03-06T14:15:44;4.30;99.90
34985;DHT22;21190;58.750;17.004;2024-03-06T14:18:11;4.40;99.90
34985;DHT22;21190;58.750;17.004;2024-03-06T14:20:38;4.40;99.90
34985;DHT22;21190;58.750;17.004;2024-03-06T14:23:07;4.40;99.90
34985;DHT22;21190;58.750;17.004;2024-03-06T14:25:34;4.40;99.90
34985;DHT22;21190;58.750;17.004;2024-03-06T14:28:04;4.30;99.90
34985;DHT22;21190;58.750;17.004;2024-03-06T14:30:31;4.30;99.90
34985;DHT22;21190;58.750;17.004;2024-03-06T14:32:59;4.30;99.90
34985;DHT22;21190;58.750;17.004;2024-03-06T14:35:26;4.30;99.90
34985;DHT22;21190;58.750;17.004;2024-03-06T14:37:54;4.30;99.90
34985;DHT22;21190;58.750;17.004;2024-03-06T14:40:21;4.30;99.90
34985;DHT22;21190;58.750;17.004;2024-03-06T14:42:48;4.20;99.90
34985;DHT22;21190;58.750;17.004;2024-03-06T14:45:19;4.20;99.90
34985;DHT22;21190;58.750;17.004;2024-03-06T14:47:46;4.10;99.90
34985;DHT22;21190;58.750;17.004;2024-03-06T14:50:14;4.00;99.90
34985;DHT22;21190;58.750;17.004;2024-03-06T14:52:41;4.00;99.90
34985;DHT22;21190;58.750;17.004;2024-03-06T14:55:08;3.90;99.90
34985;DHT22;21190;58.750;17.004;2024-03-06T14:57:36;3.90;99.90
34985;DHT22;21190;58.750;17.004;2024-03-06T15:00:04;3.90;99.90
34985;DHT22;21190;58.750;17.004;2024-03-06T15:02:33;3.90;99.90
34985;DHT22;21190;58.750;17.004;2024-03-06T15:05:01;3.80;99.90
34985;DHT22;21190;58.750;17.004;2024-03-06T15:07:29;3.80;99.90
34985;DHT22;21190;58.750;17.004;2024-03-06T15:09:56;3.80;99.90
34985;DHT22;21190;58.750;17.004;2024-03-06T15:12:24;3.80;99.90
34985;DHT22;21190;58.750;17.004;2024-03-06T15:14:52;3.80;99.90
34985;DHT22;21190;58.750;17.004;2024-03-06T15:17:24;3.70;99.90
34985;DHT22;21190;58.750;17.004;2024-03-06T15:19:55;3.80;99.90
34985;DHT22;21190;58.750;17.004;2024-03-06T15:22:24;3.70;99.90
34985;DHT22;21190;58.750;17.004;2024-03-06T15:24:51;3.70;99.90
34985;DHT22;21190;58.750;17.004;2024-03-06T15:27:18;3.70;99.90
34985;DHT22;21190;58.750;17.004;2024-03-06T15:29:46;3.70;99.90
34985;DHT22;21190;58.750;17.004;2024-03-06T15:32:13;3.60;99.90
34985;DHT22;21190;58.750;17.004;2024-03-06T15:34:41;3.60;99.90
34985;DHT22;21190;58.750;17.004;2024-03-06T15:37:08;3.50;99.90
34985;DHT22;21190;58.750;17.004;2024-03-06T15:39:35;3.50;99.90
34985;DHT22;21190;58.750;17.004;2024-03-06T15:42:03;3.50;99.90
34985;DHT22;21190;58.750;17.004;2024-03-06T15:44:30;3.40;99.90
34985;DHT22;21190;58.750;17.004;2024-03-06T15:46:57;3.40;99.90
34985;DHT22;21190;58.750;17.004;2024-03-06T15:49:36;3.30;99.90
34985;DHT22;21190;58.750;17.004;2024-03-06T15:52:03;3.20;99.90
34985;DHT22;21190;58.750;17.004;2024-03-06T15:54:31;3.20;99.90